sensor_id;sensor_type;location;lat;lon;timestamp;pressure;altitude;pressure_sealevel;temperature;humidity
64211;BME280;50528;48.514;14.394;2022-07-29T00:00:26;93835.77;;;18.64;61.62
64211;BME280;50528;48.514;14.394;2022-07-29T00:01:37;93833.78;;;18.59;61.68
64211;BME280;50528;48.514;14.394;2022-07-29T00:02:40;93837.64;;;18.58;61.50
64211;BME280;50528;48.514;14.394;2022-07-29T00:03:43;93836.08;;;18.56;61.48
64211;BME280;50528;48.514;14.394;2022-07-29T00:04:47;93835.83;;;18.54;61.44
64211;BME280;50528;48.514;14.394;2022-07-29T00:05:50;93837.98;;;18.52;61.45
64211;BME280;50528;48.514;14.394;2022-07-29T00:06:55;93835.89;;;18.50;61.52
64211;BME280;50528;48.514;14.394;2022-07-29T00:07:58;93833.86;;;18.48;61.45
64211;BME280;50528;48.514;14.394;2022-07-29T00:09:02;93833.50;;;18.48;61.45
64211;BME280;50528;48.514;14.394;2022-07-29T00:10:05;93832.56;;;18.47;61.56
64211;BME280;50528;48.514;14.394;2022-07-29T00:11:08;93833.80;;;18.46;61.61
64211;BME280;50528;48.514;14.394;2022-07-29T00:12:11;93830.03;;;18.45;61.78
64211;BME280;50528;48.514;14.394;2022-07-29T00:13:15;93827.28;;;18.45;61.80
64211;BME280;50528;48.514;14.394;2022-07-29T00:14:18;93823.84;;;18.44;61.79
64211;BME280;50528;48.514;14.394;2022-07-29T00:15:21;93823.30;;;18.41;61.57
64211;BME280;50528;48.514;14.394;2022-07-29T00:16:24;93819.04;;;18.38;61.49
64211;BME280;50528;48.514;14.394;2022-07-29T00:17:28;93825.35;;;18.39;61.36
64211;BME280;50528;48.514;14.394;2022-07-29T00:18:31;93829.92;;;18.37;61.20
64211;BME280;50528;48.514;14.394;2022-07-29T00:19:35;93832.68;;;18.31;61.31
64211;BME280;50528;48.514;14.394;2022-07-29T00:20:38;93818.45;;;18.18;61.33
64211;BME280;50528;48.514;14.394;2022-07-29T00:21:41;93827.98;;;18.21;61.38
64211;BME280;50528;48.514;14.394;2022-07-29T00:22:45;93830.00;;;18.21;61.57
64211;BME280;50528;48.514;14.394;2022-07-29T00:23:48;93829.77;;;18.20;61.44
64211;BME280;50528;48.514;14.394;2022-07-29T00:24:51;93834.13;;;18.17;61.38
64211;BME280;50528;48.514;14.394;2022-07-29T00:25:57;93833.20;;;18.15;61.48
64211;BME280;50528;48.514;14.394;2022-07-29T00:27:00;93831.44;;;18.13;61.52
64211;BME280;50528;48.514;14.394;2022-07-29T00:28:04;93830.98;;;18.10;61.49
64211;BME280;50528;48.514;14.394;2022-07-29T00:29:07;93834.50;;;18.11;61.66
64211;BME280;50528;48.514;14.394;2022-07-29T00:30:30;93830.39;;;18.08;61.74
64211;BME280;50528;48.514;14.394;2022-07-29T00:31:33;93832.89;;;18.06;62.02
64211;BME280;50528;48.514;14.394;2022-07-29T00:32:36;93828.96;;;18.05;61.96
64211;BME280;50528;48.514;14.394;2022-07-29T00:33:40;93828.59;;;18.05;61.84
64211;BME280;50528;48.514;14.394;2022-07-29T00:34:43;93830.64;;;18.03;61.71
64211;BME280;50528;48.514;14.394;2022-07-29T00:36:10;93829.55;;;17.99;61.55
64211;BME280;50528;48.514;14.394;2022-07-29T00:37:13;93812.14;;;17.85;61.60
64211;BME280;50528;48.514;14.394;2022-07-29T00:38:37;93828.41;;;17.94;61.53
64211;BME280;50528;48.514;14.394;2022-07-29T00:39:52;93822.63;;;17.88;61.52
64211;BME280;50528;48.514;14.394;2022-07-29T00:40:55;93819.30;;;17.85;61.48
64211;BME280;50528;48.514;14.394;2022-07-29T00:42:02;93825.02;;;17.86;61.31
64211;BME280;50528;48.514;14.394;2022-07-29T00:43:05;93825.98;;;17.83;61.29
64211;BME280;50528;48.514;14.394;2022-07-29T00:44:09;93824.92;;;17.80;61.31
64211;BME280;50528;48.514;14.394;2022-07-29T00:45:20;93825.45;;;17.78;61.29
64211;BME280;50528;48.514;14.394;2022-07-29T00:46:26;93816.42;;;17.70;61.29
64211;BME280;50528;48.514;14.394;2022-07-29T00:47:30;93820.02;;;17.72;61.51
64211;BME280;50528;48.514;14.394;2022-07-29T00:48:44;93817.96;;;17.69;61.60
64211;BME280;50528;48.514;14.394;2022-07-29T00:49:50;93819.72;;;17.71;61.81
64211;BME280;50528;48.514;14.394;2022-07-29T00:50:53;93818.65;;;17.71;61.85
64211;BME280;50528;48.514;14.394;2022-07-29T00:51:57;93818.49;;;17.71;61.95
64211;BME280;50528;48.514;14.394;2022-07-29T00:53:03;93819.31;;;17.69;61.85
64211;BME280;50528;48.514;14.394;2022-07-29T00:54:08;93817.95;;;17.68;61.90
64211;BME280;50528;48.514;14.394;2022-07-29T00:55:14;93819.63;;;17.67;61.72
64211;BME280;50528;48.514;14.394;2022-07-29T00:56:17;93821.24;;;17.66;61.68
64211;BME280;50528;48.514;14.394;2022-07-29T00:57:20;93822.66;;;17.63;61.61
64211;BME280;50528;48.514;14.394;2022-07-29T00:58:24;93825.14;;;17.61;61.63
64211;BME280;50528;48.514;14.394;2022-07-29T00:59:28;93820.55;;;17.55;61.56
64211;BME280;50528;48.514;14.394;2022-07-29T01:00:37;93821.19;;;17.56;61.60
64211;BME280;50528;48.514;14.394;2022-07-29T01:01:40;93821.33;;;17.54;61.53
64211;BME280;50528;48.514;14.394;2022-07-29T01:02:44;93820.44;;;17.53;61.53
64211;BME280;50528;48.514;14.394;2022-07-29T01:03:48;93819.38;;;17.53;61.58
64211;BME280;50528;48.514;14.394;2022-07-29T01:04:51;93816.67;;;17.52;61.63
64211;BME280;50528;48.514;14.394;2022-07-29T01:05:54;93813.55;;;17.51;61.58
64211;BME280;50528;48.514;14.394;2022-07-29T01:06:58;93814.01;;;17.53;61.54
64211;BME280;50528;48.514;14.394;2022-07-29T01:08:03;93816.27;;;17.55;61.78
64211;BME280;50528;48.514;14.394;2022-07-29T01:09:07;93815.34;;;17.56;61.78
64211;BME280;50528;48.514;14.394;2022-07-29T01:10:12;93817.64;;;17.55;61.81
64211;BME280;50528;48.514;14.394;2022-07-29T01:11:16;93817.82;;;17.54;61.98
64211;BME280;50528;48.514;14.394;2022-07-29T01:12:25;93817.66;;;17.54;61.98
64211;BME280;50528;48.514;14.394;2022-07-29T01:13:31;93821.29;;;17.50;61.83
64211;BME280;50528;48.514;14.394;2022-07-29T01:14:36;93823.72;;;17.47;61.73
64211;BME280;50528;48.514;14.394;2022-07-29T01:15:43;93821.80;;;17.47;61.75
64211;BME280;50528;48.514;14.394;2022-07-29T01:16:51;93825.01;;;17.46;61.86
64211;BME280;50528;48.514;14.394;2022-07-29T01:21:57;93832.06;;;17.33;62.01
64211;BME280;50528;48.514;14.394;2022-07-29T01:24:49;93831.10;;;17.30;62.06
64211;BME280;50528;48.514;14.394;2022-07-29T01:26:09;93831.85;;;17.30;62.23
64211;BME280;50528;48.514;14.394;2022-07-29T01:30:10;93835.34;;;17.22;62.68
64211;BME280;50528;48.514;14.394;2022-07-29T01:31:20;93837.77;;;17.20;62.76
64211;BME280;50528;48.514;14.394;2022-07-29T01:32:29;93839.66;;;17.18;63.01
64211;BME280;50528;48.514;14.394;2022-07-29T01:33:38;93839.20;;;17.17;63.12
64211;BME280;50528;48.514;14.394;2022-07-29T01:35:05;93844.48;;;17.15;63.17
64211;BME280;50528;48.514;14.394;2022-07-29T01:36:16;93845.42;;;17.12;63.10
64211;BME280;50528;48.514;14.394;2022-07-29T01:38:52;93850.03;;;17.09;63.15
64211;BME280;50528;48.514;14.394;2022-07-29T01:39:58;93852.70;;;17.08;63.27
64211;BME280;50528;48.514;14.394;2022-07-29T01:41:06;93847.45;;;17.07;63.29
64211;BME280;50528;48.514;14.394;2022-07-29T01:42:26;93854.60;;;17.09;63.69
64211;BME280;50528;48.514;14.394;2022-07-29T01:43:42;93848.41;;;17.08;63.93
64211;BME280;50528;48.514;14.394;2022-07-29T01:46:01;93851.20;;;17.09;64.30
64211;BME280;50528;48.514;14.394;2022-07-29T01:47:13;93850.92;;;17.10;64.26
64211;BME280;50528;48.514;14.394;2022-07-29T01:48:23;93849.21;;;17.12;64.08
64211;BME280;50528;48.514;14.394;2022-07-29T01:49:29;93848.11;;;17.14;63.94
64211;BME280;50528;48.514;14.394;2022-07-29T01:50:36;93846.80;;;17.16;63.72
64211;BME280;50528;48.514;14.394;2022-07-29T01:51:54;93848.42;;;17.19;63.56
64211;BME280;50528;48.514;14.394;2022-07-29T01:53:02;93849.27;;;17.23;63.53
64211;BME280;50528;48.514;14.394;2022-07-29T01:55:28;93853.91;;;17.29;63.42
64211;BME280;50528;48.514;14.394;2022-07-29T01:56:33;93852.16;;;17.32;63.62
64211;BME280;50528;48.514;14.394;2022-07-29T01:57:39;93846.81;;;17.34;63.71
64211;BME280;50528;48.514;14.394;2022-07-29T01:58:44;93849.92;;;17.40;63.56
64211;BME280;50528;48.514;14.394;2022-07-29T01:59:48;93849.63;;;17.43;63.52
64211;BME280;50528;48.514;14.394;2022-07-29T02:00:56;93849.77;;;17.46;63.55
64211;BME280;50528;48.514;14.394;2022-07-29T02:02:00;93848.05;;;17.49;63.40
64211;BME280;50528;48.514;14.394;2022-07-29T02:03:09;93844.10;;;17.52;63.17
64211;BME280;50528;48.514;14.394;2022-07-29T02:04:15;93836.44;;;17.56;62.90
64211;BME280;50528;48.514;14.394;2022-07-29T02:05:32;93836.67;;;17.58;62.77
64211;BME280;50528;48.514;14.394;2022-07-29T02:06:38;93835.17;;;17.61;62.58
64211;BME280;50528;48.514;14.394;2022-07-29T02:07:44;93836.40;;;17.65;62.38
64211;BME280;50528;48.514;14.394;2022-07-29T02:08:50;93842.67;;;17.67;62.27
64211;BME280;50528;48.514;14.394;2022-07-29T02:09:55;93848.37;;;17.70;62.15
64211;BME280;50528;48.514;14.394;2022-07-29T02:11:02;93852.67;;;17.72;62.13
64211;BME280;50528;48.514;14.394;2022-07-29T02:12:07;93852.92;;;17.74;62.16
64211;BME280;50528;48.514;14.394;2022-07-29T02:13:13;93851.26;;;17.76;62.11
64211;BME280;50528;48.514;14.394;2022-07-29T02:14:20;93850.06;;;17.78;62.27
64211;BME280;50528;48.514;14.394;2022-07-29T02:15:26;93847.84;;;17.80;62.41
64211;BME280;50528;48.514;14.394;2022-07-29T02:16:32;93844.55;;;17.83;62.45
64211;BME280;50528;48.514;14.394;2022-07-29T02:17:46;93844.30;;;17.85;62.60
64211;BME280;50528;48.514;14.394;2022-07-29T02:18:53;93842.63;;;17.86;62.82
64211;BME280;50528;48.514;14.394;2022-07-29T02:20:00;93840.54;;;17.88;62.91
64211;BME280;50528;48.514;14.394;2022-07-29T02:21:05;93833.84;;;17.87;62.82
64211;BME280;50528;48.514;14.394;2022-07-29T02:22:18;93836.30;;;17.89;62.64
64211;BME280;50528;48.514;14.394;2022-07-29T02:23:23;93837.32;;;17.90;62.59
64211;BME280;50528;48.514;14.394;2022-07-29T02:24:28;93840.23;;;17.90;62.43
64211;BME280;50528;48.514;14.394;2022-07-29T02:25:32;93835.58;;;17.91;62.39
64211;BME280;50528;48.514;14.394;2022-07-29T02:26:41;93833.59;;;17.92;62.42
64211;BME280;50528;48.514;14.394;2022-07-29T02:27:47;93830.93;;;17.92;62.44
64211;BME280;50528;48.514;14.394;2022-07-29T02:28:54;93832.83;;;17.93;62.28
64211;BME280;50528;48.514;14.394;2022-07-29T02:29:58;93832.47;;;17.92;62.42
64211;BME280;50528;48.514;14.394;2022-07-29T02:31:04;93828.55;;;17.92;62.14
64211;BME280;50528;48.514;14.394;2022-07-29T02:32:11;93822.72;;;17.91;62.04
64211;BME280;50528;48.514;14.394;2022-07-29T02:33:16;93823.09;;;17.91;62.06
64211;BME280;50528;48.514;14.394;2022-07-29T02:34:20;93818.42;;;17.90;62.03
64211;BME280;50528;48.514;14.394;2022-07-29T02:35:24;93818.05;;;17.90;61.91
64211;BME280;50528;48.514;14.394;2022-07-29T02:36:28;93817.09;;;17.91;62.09
64211;BME280;50528;48.514;14.394;2022-07-29T02:37:32;93812.69;;;17.92;62.27
64211;BME280;50528;48.514;14.394;2022-07-29T02:38:37;93812.03;;;17.94;62.69
64211;BME280;50528;48.514;14.394;2022-07-29T02:40:00;93815.54;;;17.94;62.73
64211;BME280;50528;48.514;14.394;2022-07-29T02:41:13;93816.50;;;17.93;62.79
64211;BME280;50528;48.514;14.394;2022-07-29T02:42:18;93817.63;;;17.93;62.86
64211;BME280;50528;48.514;14.394;2022-07-29T02:43:24;93815.59;;;17.91;63.17
64211;BME280;50528;48.514;14.394;2022-07-29T02:44:28;93817.55;;;17.89;63.44
64211;BME280;50528;48.514;14.394;2022-07-29T02:45:36;93818.20;;;17.85;63.78
64211;BME280;50528;48.514;14.394;2022-07-29T02:46:45;93819.82;;;17.80;63.79
64211;BME280;50528;48.514;14.394;2022-07-29T02:47:49;93820.06;;;17.75;64.04
64211;BME280;50528;48.514;14.394;2022-07-29T02:49:01;93820.56;;;17.71;64.19
64211;BME280;50528;48.514;14.394;2022-07-29T02:50:11;93822.70;;;17.66;64.21
64211;BME280;50528;48.514;14.394;2022-07-29T02:51:19;93826.70;;;17.62;64.55
64211;BME280;50528;48.514;14.394;2022-07-29T02:54:01;93824.00;;;17.56;64.90
64211;BME280;50528;48.514;14.394;2022-07-29T02:55:12;93817.77;;;17.56;64.94
64211;BME280;50528;48.514;14.394;2022-07-29T02:56:20;93821.36;;;17.58;64.90
64211;BME280;50528;48.514;14.394;2022-07-29T02:57:34;93819.92;;;17.58;65.09
64211;BME280;50528;48.514;14.394;2022-07-29T02:58:58;93819.05;;;17.57;64.97
64211;BME280;50528;48.514;14.394;2022-07-29T03:00:07;93821.63;;;17.61;64.88
64211;BME280;50528;48.514;14.394;2022-07-29T03:01:14;93820.52;;;17.63;64.93
64211;BME280;50528;48.514;14.394;2022-07-29T03:02:25;93819.35;;;17.63;64.91
64211;BME280;50528;48.514;14.394;2022-07-29T03:03:34;93815.83;;;17.64;64.84
64211;BME280;50528;48.514;14.394;2022-07-29T03:04:39;93815.07;;;17.65;64.88
64211;BME280;50528;48.514;14.394;2022-07-29T03:05:44;93811.09;;;17.67;64.76
64211;BME280;50528;48.514;14.394;2022-07-29T03:06:48;93809.85;;;17.68;64.79
64211;BME280;50528;48.514;14.394;2022-07-29T03:07:57;93809.78;;;17.70;64.86
64211;BME280;50528;48.514;14.394;2022-07-29T03:09:01;93816.05;;;17.70;65.11
64211;BME280;50528;48.514;14.394;2022-07-29T03:10:06;93813.44;;;17.71;65.11
64211;BME280;50528;48.514;14.394;2022-07-29T03:11:15;93812.48;;;17.71;65.19
64211;BME280;50528;48.514;14.394;2022-07-29T03:12:19;93814.55;;;17.72;65.26
64211;BME280;50528;48.514;14.394;2022-07-29T03:13:23;93815.02;;;17.72;65.13
64211;BME280;50528;48.514;14.394;2022-07-29T03:14:26;93811.33;;;17.70;65.14
64211;BME280;50528;48.514;14.394;2022-07-29T03:15:31;93814.61;;;17.70;64.99
64211;BME280;50528;48.514;14.394;2022-07-29T03:16:35;93815.73;;;17.70;64.97
64211;BME280;50528;48.514;14.394;2022-07-29T03:17:43;93814.22;;;17.68;64.77
64211;BME280;50528;48.514;14.394;2022-07-29T03:18:46;93811.43;;;17.67;64.72
64211;BME280;50528;48.514;14.394;2022-07-29T03:19:50;93812.10;;;17.65;64.76
64211;BME280;50528;48.514;14.394;2022-07-29T03:20:54;93811.75;;;17.63;64.66
64211;BME280;50528;48.514;14.394;2022-07-29T03:21:58;93810.84;;;17.63;64.63
64211;BME280;50528;48.514;14.394;2022-07-29T03:23:01;93813.30;;;17.61;64.36
64211;BME280;50528;48.514;14.394;2022-07-29T03:24:05;93808.52;;;17.51;64.37
64211;BME280;50528;48.514;14.394;2022-07-29T03:25:17;93808.70;;;17.46;64.62
64211;BME280;50528;48.514;14.394;2022-07-29T03:26:20;93809.34;;;17.46;64.78
64211;BME280;50528;48.514;14.394;2022-07-29T03:27:23;93810.55;;;17.47;64.92
64211;BME280;50528;48.514;14.394;2022-07-29T03:28:26;93812.02;;;17.48;64.97
64211;BME280;50528;48.514;14.394;2022-07-29T03:29:30;93811.97;;;17.50;65.03
64211;BME280;50528;48.514;14.394;2022-07-29T03:30:36;93807.36;;;17.50;64.97
64211;BME280;50528;48.514;14.394;2022-07-29T03:31:41;93810.96;;;17.47;65.01
64211;BME280;50528;48.514;14.394;2022-07-29T03:32:51;93809.02;;;17.47;65.02
64211;BME280;50528;48.514;14.394;2022-07-29T03:33:55;93804.52;;;17.45;64.93
64211;BME280;50528;48.514;14.394;2022-07-29T03:34:58;93807.89;;;17.47;64.87
64211;BME280;50528;48.514;14.394;2022-07-29T03:36:01;93810.70;;;17.47;64.74
64211;BME280;50528;48.514;14.394;2022-07-29T03:37:05;93810.29;;;17.46;64.71
64211;BME280;50528;48.514;14.394;2022-07-29T03:38:09;93806.36;;;17.45;64.70
64211;BME280;50528;48.514;14.394;2022-07-29T03:39:17;93809.36;;;17.45;64.58
64211;BME280;50528;48.514;14.394;2022-07-29T03:40:49;93800.45;;;17.39;64.63
64211;BME280;50528;48.514;14.394;2022-07-29T03:41:56;93809.30;;;17.41;64.64
64211;BME280;50528;48.514;14.394;2022-07-29T03:43:00;93807.98;;;17.41;64.76
64211;BME280;50528;48.514;14.394;2022-07-29T03:44:06;93809.15;;;17.41;65.00
64211;BME280;50528;48.514;14.394;2022-07-29T03:45:16;93811.70;;;17.40;65.18
64211;BME280;50528;48.514;14.394;2022-07-29T03:46:22;93813.87;;;17.38;65.30
64211;BME280;50528;48.514;14.394;2022-07-29T03:47:27;93812.48;;;17.38;65.43
64211;BME280;50528;48.514;14.394;2022-07-29T03:48:56;93812.00;;;17.38;65.37
64211;BME280;50528;48.514;14.394;2022-07-29T03:50:08;93809.84;;;17.38;65.48
64211;BME280;50528;48.514;14.394;2022-07-29T03:51:13;93811.02;;;17.37;65.55
64211;BME280;50528;48.514;14.394;2022-07-29T03:52:19;93811.80;;;17.38;65.60
64211;BME280;50528;48.514;14.394;2022-07-29T03:53:23;93807.67;;;17.37;65.53
64211;BME280;50528;48.514;14.394;2022-07-29T03:54:26;93813.14;;;17.37;65.45
64211;BME280;50528;48.514;14.394;2022-07-29T03:55:36;93814.05;;;17.37;65.48
64211;BME280;50528;48.514;14.394;2022-07-29T03:56:43;93819.84;;;17.37;65.46
64211;BME280;50528;48.514;14.394;2022-07-29T03:57:51;93816.39;;;17.37;65.42
64211;BME280;50528;48.514;14.394;2022-07-29T03:58:55;93816.99;;;17.38;65.42
64211;BME280;50528;48.514;14.394;2022-07-29T03:59:59;93815.80;;;17.39;65.45
64211;BME280;50528;48.514;14.394;2022-07-29T04:01:04;93815.84;;;17.41;65.46
64211;BME280;50528;48.514;14.394;2022-07-29T04:02:09;93814.06;;;17.43;65.47
64211;BME280;50528;48.514;14.394;2022-07-29T04:03:14;93813.33;;;17.45;65.55
64211;BME280;50528;48.514;14.394;2022-07-29T04:04:17;93814.33;;;17.46;65.57
64211;BME280;50528;48.514;14.394;2022-07-29T04:05:21;93815.42;;;17.48;65.57
64211;BME280;50528;48.514;14.394;2022-07-29T04:06:24;93814.17;;;17.49;65.52
64211;BME280;50528;48.514;14.394;2022-07-29T04:07:28;93818.19;;;17.50;65.66
64211;BME280;50528;48.514;14.394;2022-07-29T04:08:33;93820.23;;;17.52;65.51
64211;BME280;50528;48.514;14.394;2022-07-29T04:09:36;93819.11;;;17.53;65.54
64211;BME280;50528;48.514;14.394;2022-07-29T04:10:39;93823.16;;;17.55;65.37
64211;BME280;50528;48.514;14.394;2022-07-29T04:11:42;93821.77;;;17.55;65.35
64211;BME280;50528;48.514;14.394;2022-07-29T04:13:05;93823.99;;;17.56;65.24
64211;BME280;50528;48.514;14.394;2022-07-29T04:14:08;93827.35;;;17.55;65.27
64211;BME280;50528;48.514;14.394;2022-07-29T04:15:12;93823.09;;;17.56;65.17
64211;BME280;50528;48.514;14.394;2022-07-29T04:16:15;93823.98;;;17.57;65.19
64211;BME280;50528;48.514;14.394;2022-07-29T04:17:18;93826.94;;;17.58;65.29
64211;BME280;50528;48.514;14.394;2022-07-29T04:18:21;93823.98;;;17.59;65.46
64211;BME280;50528;48.514;14.394;2022-07-29T04:19:24;93825.94;;;17.60;65.71
64211;BME280;50528;48.514;14.394;2022-07-29T04:20:28;93825.23;;;17.61;65.79
64211;BME280;50528;48.514;14.394;2022-07-29T04:21:37;93826.00;;;17.63;65.74
64211;BME280;50528;48.514;14.394;2022-07-29T04:22:40;93822.52;;;17.64;65.75
64211;BME280;50528;48.514;14.394;2022-07-29T04:23:43;93820.40;;;17.64;65.74
64211;BME280;50528;48.514;14.394;2022-07-29T04:24:55;93819.71;;;17.64;65.76
64211;BME280;50528;48.514;14.394;2022-07-29T04:26:05;93817.47;;;17.65;65.86
64211;BME280;50528;48.514;14.394;2022-07-29T04:27:10;93820.23;;;17.65;65.85
64211;BME280;50528;48.514;14.394;2022-07-29T04:28:14;93817.91;;;17.67;65.83
64211;BME280;50528;48.514;14.394;2022-07-29T04:29:18;93820.27;;;17.70;65.80
64211;BME280;50528;48.514;14.394;2022-07-29T04:30:23;93819.33;;;17.72;65.82
64211;BME280;50528;48.514;14.394;2022-07-29T04:31:26;93817.18;;;17.73;65.93
64211;BME280;50528;48.514;14.394;2022-07-29T04:32:29;93815.28;;;17.74;66.02
64211;BME280;50528;48.514;14.394;2022-07-29T04:33:35;93821.95;;;17.77;66.08
64211;BME280;50528;48.514;14.394;2022-07-29T04:34:38;93818.05;;;17.80;66.20
64211;BME280;50528;48.514;14.394;2022-07-29T04:35:41;93824.09;;;17.83;66.18
64211;BME280;50528;48.514;14.394;2022-07-29T04:36:52;93821.92;;;17.85;65.95
64211;BME280;50528;48.514;14.394;2022-07-29T04:37:55;93822.39;;;17.85;65.95
64211;BME280;50528;48.514;14.394;2022-07-29T04:38:58;93824.34;;;17.86;65.96
64211;BME280;50528;48.514;14.394;2022-07-29T04:40:04;93825.37;;;17.89;66.02
64211;BME280;50528;48.514;14.394;2022-07-29T04:41:08;93822.70;;;17.92;65.91
64211;BME280;50528;48.514;14.394;2022-07-29T04:42:12;93818.46;;;17.94;65.82
64211;BME280;50528;48.514;14.394;2022-07-29T04:43:16;93817.42;;;17.96;65.76
64211;BME280;50528;48.514;14.394;2022-07-29T04:44:25;93823.00;;;18.02;65.72
64211;BME280;50528;48.514;14.394;2022-07-29T04:45:30;93818.70;;;18.05;65.54
64211;BME280;50528;48.514;14.394;2022-07-29T04:46:34;93819.05;;;18.06;65.54
64211;BME280;50528;48.514;14.394;2022-07-29T04:47:37;93816.23;;;18.09;65.54
64211;BME280;50528;48.514;14.394;2022-07-29T04:48:41;93821.23;;;18.15;65.69
64211;BME280;50528;48.514;14.394;2022-07-29T04:49:47;93823.05;;;18.17;65.75
64211;BME280;50528;48.514;14.394;2022-07-29T04:50:50;93829.58;;;18.19;65.97
64211;BME280;50528;48.514;14.394;2022-07-29T04:51:53;93826.98;;;18.20;65.97
64211;BME280;50528;48.514;14.394;2022-07-29T04:52:56;93828.80;;;18.23;65.99
64211;BME280;50528;48.514;14.394;2022-07-29T04:54:01;93828.77;;;18.26;66.05
64211;BME280;50528;48.514;14.394;2022-07-29T04:55:05;93832.55;;;18.27;66.03
64211;BME280;50528;48.514;14.394;2022-07-29T04:56:08;93831.90;;;18.28;66.07
64211;BME280;50528;48.514;14.394;2022-07-29T04:57:11;93834.86;;;18.29;66.10
64211;BME280;50528;48.514;14.394;2022-07-29T04:58:14;93837.83;;;18.30;65.77
64211;BME280;50528;48.514;14.394;2022-07-29T04:59:18;93834.14;;;18.33;65.53
64211;BME280;50528;48.514;14.394;2022-07-29T05:00:21;93831.71;;;18.35;65.32
64211;BME280;50528;48.514;14.394;2022-07-29T05:01:34;93836.49;;;18.36;65.06
64211;BME280;50528;48.514;14.394;2022-07-29T05:02:38;93833.63;;;18.35;65.23
64211;BME280;50528;48.514;14.394;2022-07-29T05:03:41;93841.20;;;18.35;65.45
64211;BME280;50528;48.514;14.394;2022-07-29T05:04:45;93835.52;;;18.33;65.44
64211;BME280;50528;48.514;14.394;2022-07-29T05:05:48;93839.52;;;18.32;65.86
64211;BME280;50528;48.514;14.394;2022-07-29T05:06:51;93840.38;;;18.32;65.63
64211;BME280;50528;48.514;14.394;2022-07-29T05:07:54;93843.70;;;18.34;65.60
64211;BME280;50528;48.514;14.394;2022-07-29T05:08:58;93847.05;;;18.37;65.71
64211;BME280;50528;48.514;14.394;2022-07-29T05:10:01;93846.58;;;18.40;65.74
64211;BME280;50528;48.514;14.394;2022-07-29T05:11:04;93843.55;;;18.43;65.93
64211;BME280;50528;48.514;14.394;2022-07-29T05:12:14;93846.67;;;18.47;66.11
64211;BME280;50528;48.514;14.394;2022-07-29T05:13:19;93844.84;;;18.50;66.00
64211;BME280;50528;48.514;14.394;2022-07-29T05:14:22;93846.17;;;18.53;66.16
64211;BME280;50528;48.514;14.394;2022-07-29T05:15:25;93846.65;;;18.57;66.13
64211;BME280;50528;48.514;14.394;2022-07-29T05:16:28;93849.64;;;18.60;66.44
64211;BME280;50528;48.514;14.394;2022-07-29T05:17:31;93850.30;;;18.64;66.37
64211;BME280;50528;48.514;14.394;2022-07-29T05:18:35;93853.41;;;18.68;66.42
64211;BME280;50528;48.514;14.394;2022-07-29T05:19:38;93850.61;;;18.70;66.38
64211;BME280;50528;48.514;14.394;2022-07-29T05:20:41;93849.29;;;18.74;66.20
64211;BME280;50528;48.514;14.394;2022-07-29T05:21:44;93851.66;;;18.76;66.07
64211;BME280;50528;48.514;14.394;2022-07-29T05:22:47;93853.88;;;18.77;65.98
64211;BME280;50528;48.514;14.394;2022-07-29T05:23:51;93854.94;;;18.77;66.04
64211;BME280;50528;48.514;14.394;2022-07-29T05:24:54;93851.79;;;18.78;66.00
64211;BME280;50528;48.514;14.394;2022-07-29T05:25:57;93854.83;;;18.78;66.08
64211;BME280;50528;48.514;14.394;2022-07-29T05:27:01;93856.08;;;18.76;66.09
64211;BME280;50528;48.514;14.394;2022-07-29T05:28:05;93853.80;;;18.76;65.96
64211;BME280;50528;48.514;14.394;2022-07-29T05:29:08;93853.17;;;18.75;66.12
64211;BME280;50528;48.514;14.394;2022-07-29T05:30:31;93850.05;;;18.74;66.24
64211;BME280;50528;48.514;14.394;2022-07-29T05:31:34;93852.83;;;18.76;66.29
64211;BME280;50528;48.514;14.394;2022-07-29T05:32:37;93850.77;;;18.79;66.26
64211;BME280;50528;48.514;14.394;2022-07-29T05:33:41;93849.77;;;18.80;66.32
64211;BME280;50528;48.514;14.394;2022-07-29T05:34:44;93851.33;;;18.82;66.35
64211;BME280;50528;48.514;14.394;2022-07-29T05:35:53;93850.55;;;18.84;66.30
64211;BME280;50528;48.514;14.394;2022-07-29T05:37:02;93851.63;;;18.83;66.20
64211;BME280;50528;48.514;14.394;2022-07-29T05:38:05;93846.16;;;18.82;66.17
64211;BME280;50528;48.514;14.394;2022-07-29T05:39:09;93849.37;;;18.81;66.22
64211;BME280;50528;48.514;14.394;2022-07-29T05:40:12;93848.70;;;18.80;66.19
64211;BME280;50528;48.514;14.394;2022-07-29T05:41:15;93849.45;;;18.80;66.06
64211;BME280;50528;48.514;14.394;2022-07-29T05:42:18;93849.42;;;18.79;66.01
64211;BME280;50528;48.514;14.394;2022-07-29T05:43:21;93852.63;;;18.78;65.50
64211;BME280;50528;48.514;14.394;2022-07-29T05:44:24;93853.85;;;18.75;65.49
64211;BME280;50528;48.514;14.394;2022-07-29T05:45:27;93848.69;;;18.76;65.28
64211;BME280;50528;48.514;14.394;2022-07-29T05:46:31;93852.08;;;18.77;65.20
64211;BME280;50528;48.514;14.394;2022-07-29T05:47:34;93850.17;;;18.80;65.25
64211;BME280;50528;48.514;14.394;2022-07-29T05:48:37;93850.00;;;18.84;65.10
64211;BME280;50528;48.514;14.394;2022-07-29T05:49:41;93850.36;;;18.86;64.99
64211;BME280;50528;48.514;14.394;2022-07-29T05:50:45;93852.49;;;18.83;65.09
64211;BME280;50528;48.514;14.394;2022-07-29T05:51:48;93847.60;;;18.79;64.96
64211;BME280;50528;48.514;14.394;2022-07-29T05:52:52;93852.96;;;18.83;65.08
64211;BME280;50528;48.514;14.394;2022-07-29T05:53:55;93852.94;;;18.84;65.11
64211;BME280;50528;48.514;14.394;2022-07-29T05:54:58;93853.39;;;18.85;65.05
64211;BME280;50528;48.514;14.394;2022-07-29T05:56:05;93851.44;;;18.87;64.88
64211;BME280;50528;48.514;14.394;2022-07-29T05:57:08;93845.70;;;18.89;64.67
64211;BME280;50528;48.514;14.394;2022-07-29T05:58:17;93850.64;;;18.92;64.36
64211;BME280;50528;48.514;14.394;2022-07-29T05:59:20;93849.75;;;18.95;64.23